Drogobych, Ukraine
Current Conditions -  °F | °C
As of 12:16 PM on Monday 22 Dec 2014 (Local Time) from UKLL Reporting Station
Rain Showers Rain Showers  
Wind Chill: 25°   Ceiling: 800
Heat Index: 36°   Visibility: 6mi
Dew Point: 34°   Wind: 18mph
Humidity: 93%   Direction: 230°SW
Pressure: 29.85"   Gusts: 29mph
Location:  49.35°N, 23.52°E
Report Text: UKLL 220916Z 23008G13MPS 200V260 9000 -SHRA BKN008BKN020CB 02/01 Q1011 31290065 TEMPO 25010G16MPS
Loading
Personal Weather Stations






























Interactive Weather Map New forecast layout! Learn more

10-Day Weather Forecast

Advertisements
Track Severe Weather on mobile